Time;durP1;ratioP1;P1;durP2;ratioP2;P2;SDS_P1;SDS_P2;PMS_P1;PMS_P2;Temp;Humidity;BMP_temperature;BMP_pressure;BME280_temperature;BME280_humidity;BME280_pressure;Samples;Min_cycle;Max_cycle;Signal;HPM_P1;HPM_P2
2022/01/13 00:02:18;;;;;;;140.20;35.45;;;2.90;99.90;;;;;;4957729;28;20095;-87
2022/01/13 00:04:44;;;;;;;143.85;38.30;;;2.90;99.90;;;;;;4972756;28;20039;-88
2022/01/13 00:07:10;;;;;;;141.85;35.95;;;2.90;99.90;;;;;;4994266;28;20025;-88
2022/01/13 00:09:36;;;;;;;159.50;37.67;;;2.80;99.90;;;;;;4980092;28;20149;-88
2022/01/13 00:12:02;;;;;;;128.07;34.38;;;2.80;99.90;;;;;;4961950;28;20065;-87
2022/01/13 00:22:38;;;;;;;181.05;37.17;;;2.80;99.90;;;;;;4993053;28;20061;-86
2022/01/13 00:25:06;;;;;;;210.52;38.92;;;2.80;99.90;;;;;;4979762;28;20046;-88
2022/01/13 00:27:32;;;;;;;158.55;35.15;;;2.80;99.90;;;;;;4979669;28;20019;-88
2022/01/13 00:30:00;;;;;;;213.95;39.60;;;2.80;99.90;;;;;;4981694;28;20033;-87
2022/01/13 00:32:29;;;;;;;195.70;36.15;;;2.80;99.90;;;;;;4982471;28;20030;-88
2022/01/13 00:34:55;;;;;;;204.43;38.15;;;2.80;99.90;;;;;;4980082;28;20050;-88
2022/01/13 00:37:20;;;;;;;207.82;41.78;;;2.80;99.90;;;;;;4979571;28;20037;-88
2022/01/13 00:39:46;;;;;;;209.68;39.17;;;2.80;99.90;;;;;;4996989;28;20058;-87
2022/01/13 00:42:12;;;;;;;253.75;39.58;;;2.80;99.90;;;;;;4979351;28;20022;-88
2022/01/13 00:44:38;;;;;;;214.35;40.13;;;2.80;99.90;;;;;;4980001;28;20117;-88
2022/01/13 00:47:08;;;;;;;227.20;38.95;;;2.80;99.90;;;;;;4979920;28;20073;-88
2022/01/13 00:49:34;;;;;;;187.23;36.67;;;2.80;99.90;;;;;;4976293;28;20050;-89
2022/01/13 00:52:00;;;;;;;200.60;36.05;;;2.80;99.90;;;;;;4979026;28;20037;-87
2022/01/13 00:54:25;;;;;;;233.32;39.72;;;2.80;99.90;;;;;;4979262;28;20038;-87
2022/01/13 00:56:51;;;;;;;218.82;39.03;;;2.80;99.90;;;;;;4996745;28;20030;-87
2022/01/13 00:59:17;;;;;;;254.02;40.17;;;2.80;99.90;;;;;;4996363;28;20390;-87
2022/01/13 01:01:45;;;;;;;233.05;38.90;;;2.80;99.90;;;;;;4996712;28;20026;-87
2022/01/13 01:04:11;;;;;;;211.68;36.17;;;2.80;99.90;;;;;;4995824;28;20490;-87
2022/01/13 01:06:37;;;;;;;208.55;39.13;;;2.80;99.90;;;;;;4996874;28;20110;-87
2022/01/13 01:09:04;;;;;;;215.77;35.20;;;2.80;99.90;;;;;;4979540;28;20021;-87
2022/01/13 01:11:29;;;;;;;215.85;38.53;;;2.80;99.90;;;;;;4978598;28;20025;-87
2022/01/13 01:13:57;;;;;;;224.73;36.63;;;2.80;99.90;;;;;;4979052;28;20121;-87
2022/01/13 01:16:24;;;;;;;214.68;36.42;;;2.80;99.90;;;;;;4969664;28;20035;-87
2022/01/13 01:18:55;;;;;;;229.75;36.30;;;2.80;99.90;;;;;;4979295;28;20034;-85
2022/01/13 01:29:09;;;;;;;254.48;36.88;;;2.70;99.90;;;;;;4996273;28;20018;-87
2022/01/13 01:31:37;;;;;;;197.60;31.50;;;2.70;99.90;;;;;;4988351;28;20035;-87
2022/01/13 01:36:48;;;;;;;128.23;24.85;;;2.70;99.90;;;;;;4996510;28;20042;-88
2022/01/13 01:39:14;;;;;;;128.85;26.75;;;2.70;99.90;;;;;;4969799;28;20034;-88
2022/01/13 01:41:51;;;;;;;141.07;26.33;;;2.70;99.90;;;;;;4960822;28;20510;-88
2022/01/13 01:44:30;;;;;;;132.68;26.83;;;2.70;99.90;;;;;;4989874;28;20076;-87
2022/01/13 01:46:58;;;;;;;121.43;26.48;;;2.70;99.90;;;;;;4994609;28;20038;-87
2022/01/13 01:49:25;;;;;;;130.35;25.50;;;2.70;99.90;;;;;;4977828;28;20030;-88
2022/01/13 01:51:54;;;;;;;167.32;29.02;;;2.70;99.90;;;;;;4978872;28;20501;-88
2022/01/13 01:54:21;;;;;;;130.25;29.60;;;2.60;99.90;;;;;;4994708;28;20034;-88
2022/01/13 01:56:47;;;;;;;122.65;26.30;;;2.60;99.90;;;;;;4978712;28;20030;-88
2022/01/13 01:59:16;;;;;;;136.25;27.63;;;2.60;99.90;;;;;;4978983;28;20038;-87
2022/01/13 02:01:43;;;;;;;161.20;29.75;;;2.60;99.90;;;;;;4978912;28;20022;-88
2022/01/13 02:04:10;;;;;;;169.10;32.22;;;2.70;99.90;;;;;;4978162;28;20057;-88
2022/01/13 02:06:37;;;;;;;198.15;30.30;;;2.70;99.90;;;;;;4978531;28;20490;-87
2022/01/13 02:09:05;;;;;;;183.30;33.40;;;2.70;99.90;;;;;;4977768;28;20049;-88
2022/01/13 02:11:41;;;;;;;144.82;28.75;;;2.70;99.90;;;;;;4978636;28;20116;-88
2022/01/13 02:14:31;;;;;;;207.85;29.33;;;2.80;99.90;;;;;;4974471;28;20030;-87
2022/01/13 02:17:13;;;;;;;133.13;28.83;;;2.70;99.90;;;;;;4989371;28;20037;-87
2022/01/13 02:19:44;;;;;;;153.75;26.95;;;2.70;99.90;;;;;;4978602;28;20058;-87
2022/01/13 02:22:09;;;;;;;154.73;28.67;;;2.80;99.90;;;;;;4979693;28;20031;-88
2022/01/13 02:24:36;;;;;;;115.10;25.63;;;2.80;99.90;;;;;;4977711;28;20043;-87
2022/01/13 02:27:02;;;;;;;107.80;24.05;;;2.70;99.90;;;;;;4977759;28;20025;-87
2022/01/13 02:29:28;;;;;;;129.85;25.58;;;2.80;99.90;;;;;;4974350;28;20072;-87
2022/01/13 02:31:54;;;;;;;109.18;22.73;;;2.80;99.90;;;;;;4977309;28;20034;-88
2022/01/13 02:34:21;;;;;;;112.82;24.70;;;2.80;99.90;;;;;;4977422;28;20113;-88
2022/01/13 02:36:50;;;;;;;92.57;21.88;;;2.70;99.90;;;;;;4977926;28;20030;-88
2022/01/13 02:39:15;;;;;;;100.20;22.00;;;2.70;99.90;;;;;;4976797;28;20036;-88
2022/01/13 02:41:41;;;;;;;96.25;22.90;;;2.70;99.90;;;;;;4977812;28;20051;-88
2022/01/13 02:44:14;;;;;;;98.45;21.85;;;2.70;99.90;;;;;;4993092;28;20161;-87
2022/01/13 02:49:07;;;;;;;112.88;21.98;;;2.70;99.90;;;;;;4994857;28;20029;-87
2022/01/13 02:51:34;;;;;;;139.30;25.95;;;2.70;99.90;;;;;;4994636;28;20026;-88
2022/01/13 02:53:59;;;;;;;108.25;21.80;;;2.70;99.90;;;;;;4976540;28;20047;-87
2022/01/13 02:56:27;;;;;;;112.47;23.48;;;2.70;99.90;;;;;;4980825;28;20119;-87
2022/01/13 02:58:53;;;;;;;96.13;23.88;;;2.70;99.90;;;;;;4977509;28;20026;-87
2022/01/13 03:01:19;;;;;;;108.57;23.98;;;2.80;99.90;;;;;;4976257;28;20030;-88
2022/01/13 03:03:45;;;;;;;130.15;25.45;;;2.70;99.90;;;;;;4976291;28;20100;-87
2022/01/13 03:06:13;;;;;;;143.85;26.92;;;2.70;99.90;;;;;;4976924;28;20037;-87
2022/01/13 03:08:47;;;;;;;123.35;25.65;;;2.70;99.90;;;;;;4993832;28;20022;-87
2022/01/13 03:11:16;;;;;;;129.43;26.10;;;2.70;99.90;;;;;;4977017;28;20050;-87
2022/01/13 03:13:41;;;;;;;120.18;24.23;;;2.70;99.90;;;;;;4976000;28;20050;-88
2022/01/13 03:16:12;;;;;;;134.90;25.38;;;2.80;99.90;;;;;;4976542;28;20022;-88
2022/01/13 03:18:38;;;;;;;111.43;22.55;;;2.80;99.90;;;;;;4977227;28;20030;-88
2022/01/13 03:21:06;;;;;;;101.82;24.55;;;2.80;99.90;;;;;;4977252;28;20479;-88
2022/01/13 03:23:33;;;;;;;89.68;22.10;;;2.80;99.90;;;;;;4978682;28;20050;-88
2022/01/13 03:25:58;;;;;;;118.75;22.98;;;2.70;99.90;;;;;;4976191;28;20044;-88
2022/01/13 03:28:31;;;;;;;119.45;24.75;;;2.70;99.90;;;;;;4976134;28;20554;-88
2022/01/13 03:31:02;;;;;;;118.88;23.27;;;2.70;99.90;;;;;;4968912;28;20122;-87
2022/01/13 03:33:28;;;;;;;128.50;26.15;;;2.70;99.90;;;;;;4968431;28;20390;-87
2022/01/13 03:35:54;;;;;;;174.63;27.40;;;2.70;99.90;;;;;;4975949;28;20406;-88
2022/01/13 03:38:20;;;;;;;109.75;23.33;;;2.70;99.90;;;;;;4976490;28;20022;-88
2022/01/13 03:40:46;;;;;;;119.28;25.42;;;2.70;99.90;;;;;;4975944;28;20026;-88
2022/01/13 03:43:13;;;;;;;115.57;24.33;;;2.70;99.90;;;;;;4976273;28;20394;-88
2022/01/13 03:45:39;;;;;;;111.18;22.65;;;2.70;99.90;;;;;;4976735;28;20154;-88
2022/01/13 03:48:06;;;;;;;157.43;28.55;;;2.70;99.90;;;;;;4961584;28;20043;-88
2022/01/13 03:50:32;;;;;;;107.93;23.63;;;2.70;99.90;;;;;;4983892;28;20030;-87
2022/01/13 03:53:03;;;;;;;137.23;25.17;;;2.70;99.90;;;;;;4992382;28;20438;-88
2022/01/13 03:55:35;;;;;;;120.18;24.63;;;2.70;99.90;;;;;;4992491;28;20050;-89
2022/01/13 03:58:30;;;;;;;111.20;23.27;;;2.70;99.90;;;;;;4974566;28;20037;-88
2022/01/13 04:01:33;;;;;;;97.97;22.75;;;2.70;99.90;;;;;;4979337;28;20561;-88
2022/01/13 04:03:59;;;;;;;;;;;2.70;99.90;;;;;;4993056;28;20143;-89
2022/01/13 04:06:33;;;;;;;96.60;21.58;;;2.70;99.90;;;;;;4992438;28;19997;-88
2022/01/13 04:08:59;;;;;;;116.82;21.33;;;2.60;99.90;;;;;;4974932;28;20117;-88
2022/01/13 04:11:32;;;;;;;96.68;21.27;;;2.60;99.90;;;;;;4974399;28;20114;-88
2022/01/13 04:14:04;;;;;;;113.25;21.48;;;2.60;99.90;;;;;;4976520;28;20091;-88
2022/01/13 04:16:36;;;;;;;107.50;20.38;;;2.70;99.90;;;;;;4974681;28;20076;-88
2022/01/13 04:19:07;;;;;;;135.63;24.42;;;2.60;99.90;;;;;;4990935;28;20026;-88
2022/01/13 04:21:34;;;;;;;99.32;22.35;;;2.60;99.90;;;;;;4975430;28;20030;-88
2022/01/13 04:24:02;;;;;;;101.57;21.10;;;2.60;99.90;;;;;;4974440;28;20050;-87
2022/01/13 04:26:29;;;;;;;107.75;22.42;;;2.50;99.90;;;;;;4991386;28;20038;-89
2022/01/13 04:29:18;;;;;;;146.98;25.70;;;2.60;99.90;;;;;;4991894;28;20026;-87
2022/01/13 04:31:46;;;;;;;137.48;22.92;;;2.60;99.90;;;;;;4974673;28;20505;-87
2022/01/13 04:34:12;;;;;;;128.20;23.52;;;2.60;99.90;;;;;;4974639;28;20026;-89
2022/01/13 04:36:38;;;;;;;102.53;22.13;;;2.60;99.90;;;;;;4975862;28;20033;-88
2022/01/13 04:39:05;;;;;;;104.20;22.23;;;2.60;99.90;;;;;;4970060;28;20031;-89
2022/01/13 04:41:36;;;;;;;117.57;22.27;;;2.60;99.90;;;;;;4977641;28;20084;-88
2022/01/13 04:44:10;;;;;;;93.40;20.75;;;2.60;99.90;;;;;;4976608;28;20108;-88
2022/01/13 04:46:36;;;;;;;106.75;21.08;;;2.60;99.90;;;;;;4973623;28;20026;-88
2022/01/13 04:49:03;;;;;;;84.78;18.77;;;2.60;99.90;;;;;;4977238;28;20030;-88
2022/01/13 04:51:29;;;;;;;120.82;21.70;;;2.60;99.90;;;;;;4965227;28;20029;-88
2022/01/13 04:53:54;;;;;;;98.45;19.50;;;2.60;99.90;;;;;;4974383;28;20035;-88
2022/01/13 04:56:30;;;;;;;185.52;24.42;;;2.50;99.90;;;;;;4971321;28;20077;-88
2022/01/13 04:58:56;;;;;;;166.20;23.50;;;2.50;99.90;;;;;;4972267;28;20031;-89
2022/01/13 05:01:22;;;;;;;99.88;21.15;;;2.60;99.90;;;;;;4978691;28;20065;-87
2022/01/13 05:03:48;;;;;;;128.20;22.63;;;2.60;99.90;;;;;;4978550;28;20042;-89
2022/01/13 05:06:17;;;;;;;113.20;21.27;;;2.60;99.90;;;;;;4978455;28;20088;-89
2022/01/13 05:08:44;;;;;;;113.13;21.92;;;2.60;99.90;;;;;;4979431;28;20066;-89
2022/01/13 05:11:09;;;;;;;118.03;23.60;;;2.60;99.90;;;;;;4978244;28;20062;-89
2022/01/13 05:13:35;;;;;;;98.53;20.83;;;2.60;99.90;;;;;;4975478;28;20471;-89
2022/01/13 05:16:00;;;;;;;83.40;18.88;;;2.50;99.90;;;;;;4978722;28;20030;-88
2022/01/13 05:18:48;;;;;;;112.35;20.10;;;2.50;99.90;;;;;;4978168;28;20042;-88
2022/01/13 05:21:26;;;;;;;104.10;20.08;;;2.50;99.90;;;;;;4978080;28;20023;-88
2022/01/13 05:23:52;;;;;;;112.43;19.95;;;2.50;99.90;;;;;;4978181;28;20054;-88
2022/01/13 05:26:23;;;;;;;104.25;19.73;;;2.50;99.90;;;;;;4975106;28;20034;-88
2022/01/13 05:28:49;;;;;;;106.18;21.10;;;2.50;99.90;;;;;;4989464;28;20046;-88
2022/01/13 05:31:15;;;;;;;116.75;18.83;;;2.60;99.90;;;;;;4976864;28;20036;-88
2022/01/13 05:33:41;;;;;;;209.35;21.55;;;2.50;99.90;;;;;;4975855;28;20039;-88
2022/01/13 05:36:07;;;;;;;121.43;19.23;;;2.50;99.90;;;;;;4971422;28;20038;-88
2022/01/13 05:38:33;;;;;;;283.77;25.00;;;2.50;99.90;;;;;;4976656;28;20026;-88
2022/01/13 05:40:58;;;;;;;79.68;18.25;;;2.50;99.90;;;;;;4978099;28;20517;-88
2022/01/13 05:43:27;;;;;;;121.20;18.83;;;2.50;99.90;;;;;;4974858;28;20435;-89
2022/01/13 05:45:52;;;;;;;55.08;16.65;;;2.50;99.90;;;;;;4972702;28;20040;-87
2022/01/13 05:48:18;;;;;;;101.78;19.77;;;2.50;99.90;;;;;;4968622;28;20027;-87
2022/01/13 05:50:44;;;;;;;148.68;20.42;;;2.50;99.90;;;;;;4989955;28;20023;-88
2022/01/13 05:53:09;;;;;;;62.10;16.08;;;2.50;99.90;;;;;;4977684;28;20439;-87
2022/01/13 05:55:35;;;;;;;64.93;17.75;;;2.60;99.90;;;;;;4974071;28;20475;-87
2022/01/13 05:58:01;;;;;;;99.43;18.27;;;2.60;99.90;;;;;;4990383;28;20052;-88
2022/01/13 06:00:26;;;;;;;63.20;16.83;;;2.70;99.90;;;;;;4975836;28;20022;-87
2022/01/13 06:02:52;;;;;;;54.45;16.23;;;2.80;99.90;;;;;;4978251;28;20088;-87
2022/01/13 06:05:19;;;;;;;65.97;18.17;;;2.80;99.90;;;;;;4977016;28;20035;-87
2022/01/13 06:07:46;;;;;;;51.13;15.27;;;2.90;99.90;;;;;;4978824;28;20066;-86
2022/01/13 06:10:18;;;;;;;72.40;17.13;;;2.90;99.90;;;;;;4977706;28;20033;-87
2022/01/13 06:12:43;;;;;;;76.32;16.13;;;2.90;99.90;;;;;;4978257;28;20022;-87
2022/01/13 06:15:11;;;;;;;55.25;16.95;;;2.90;99.90;;;;;;4977637;28;20108;-86
2022/01/13 06:17:38;;;;;;;67.10;17.50;;;2.90;99.90;;;;;;4976377;28;20022;-88
2022/01/13 06:20:09;;;;;;;79.68;16.35;;;2.80;99.90;;;;;;4972194;28;20077;-87
2022/01/13 06:22:34;;;;;;;76.88;17.38;;;2.80;99.90;;;;;;4968420;28;20038;-87
2022/01/13 06:25:01;;;;;;;61.38;16.90;;;2.80;99.90;;;;;;4967247;28;20076;-88
2022/01/13 06:27:27;;;;;;;64.03;18.65;;;2.80;99.90;;;;;;4963535;28;20030;-87
2022/01/13 06:29:53;;;;;;;82.22;19.25;;;2.70;99.90;;;;;;4974323;28;20042;-88
2022/01/13 06:32:21;;;;;;;82.57;18.40;;;2.70;99.90;;;;;;4976905;28;20498;-88
2022/01/13 06:34:47;;;;;;;56.45;16.50;;;2.80;99.90;;;;;;4974299;28;20042;-88
2022/01/13 06:37:13;;;;;;;54.67;17.30;;;2.70;99.90;;;;;;4977487;28;20080;-88
2022/01/13 06:39:38;;;;;;;70.68;18.38;;;2.80;99.90;;;;;;4978539;28;20022;-88
2022/01/13 06:42:04;;;;;;;62.58;19.52;;;2.80;99.90;;;;;;4975708;28;20030;-88
2022/01/13 06:44:30;;;;;;;60.22;18.33;;;2.90;99.90;;;;;;4977717;28;20031;-88
2022/01/13 06:46:55;;;;;;;61.40;18.05;;;3.00;99.90;;;;;;4977339;28;20034;-88
2022/01/13 06:49:21;;;;;;;70.85;19.75;;;3.00;99.90;;;;;;4978341;28;20014;-88
2022/01/13 06:51:46;;;;;;;61.20;16.92;;;3.00;99.90;;;;;;4977669;28;20018;-88
2022/01/13 06:54:12;;;;;;;53.22;18.15;;;3.10;99.90;;;;;;4994123;28;20070;-88
2022/01/13 06:56:38;;;;;;;44.22;16.40;;;3.10;99.90;;;;;;4976970;28;20041;-88
2022/01/13 06:59:09;;;;;;;91.45;20.92;;;3.10;99.90;;;;;;4972980;28;20031;-89
2022/01/13 07:01:35;;;;;;;76.10;18.97;;;2.90;99.90;;;;;;4971323;28;20490;-88
2022/01/13 07:04:00;;;;;;;67.97;19.63;;;2.80;99.90;;;;;;4977405;28;20276;-88
2022/01/13 07:06:26;;;;;;;60.95;18.48;;;2.80;99.90;;;;;;4977579;28;20609;-88
2022/01/13 07:08:52;;;;;;;65.10;19.48;;;2.80;99.90;;;;;;4978304;28;20113;-87
2022/01/13 07:11:17;;;;;;;73.05;19.58;;;2.80;99.90;;;;;;4993595;28;20505;-88
2022/01/13 07:13:43;;;;;;;50.47;17.67;;;2.80;99.90;;;;;;4979700;28;20022;-88
2022/01/13 07:16:08;;;;;;;55.90;18.38;;;2.80;99.90;;;;;;4979340;28;20033;-89
2022/01/13 07:18:40;;;;;;;61.05;19.02;;;2.80;99.90;;;;;;4975284;28;20031;-89
2022/01/13 07:21:08;;;;;;;59.92;17.25;;;2.80;99.90;;;;;;4973643;28;20376;-87
2022/01/13 07:23:34;;;;;;;102.47;23.05;;;2.80;99.90;;;;;;4971436;28;20053;-87
2022/01/13 07:26:02;;;;;;;88.72;20.05;;;2.80;99.90;;;;;;4992805;28;20562;-87
2022/01/13 07:28:29;;;;;;;108.43;21.13;;;2.70;99.90;;;;;;4993081;28;20065;-87
2022/01/13 07:30:56;;;;;;;68.38;20.55;;;2.70;99.90;;;;;;4975129;28;20038;-87
2022/01/13 07:33:22;;;;;;;69.97;19.02;;;2.80;99.90;;;;;;4965516;28;20434;-88
2022/01/13 07:35:47;;;;;;;84.07;20.60;;;2.80;99.90;;;;;;4976694;28;20030;-88
2022/01/13 07:38:13;;;;;;;60.83;17.45;;;2.90;99.90;;;;;;4976539;28;20480;-88
2022/01/13 07:40:38;;;;;;;112.95;20.73;;;2.90;99.90;;;;;;4976998;28;20034;-88
2022/01/13 07:43:04;;;;;;;90.15;19.00;;;2.80;99.90;;;;;;4975273;28;20105;-89
2022/01/13 07:45:29;;;;;;;75.82;15.23;;;2.80;99.90;;;;;;4976031;28;20094;-88
2022/01/13 07:47:55;;;;;;;83.03;16.98;;;2.80;99.90;;;;;;4975256;28;20026;-88
2022/01/13 07:50:21;;;;;;;60.25;15.02;;;2.70;99.90;;;;;;4975948;28;20044;-89
2022/01/13 07:52:47;;;;;;;58.38;13.73;;;2.70;99.90;;;;;;4976796;28;20399;-90
2022/01/13 07:55:13;;;;;;;54.55;14.82;;;2.70;99.90;;;;;;4975971;28;20042;-89
2022/01/13 07:57:38;;;;;;;68.28;15.32;;;2.60;99.90;;;;;;4976717;28;20022;-88
2022/01/13 08:00:08;;;;;;;67.18;15.02;;;2.70;99.90;;;;;;4975947;28;20038;-88
2022/01/13 08:02:33;;;;;;;72.50;16.60;;;2.60;99.90;;;;;;4971502;28;20022;-89
2022/01/13 08:04:59;;;;;;;72.38;16.30;;;2.50;99.90;;;;;;4967114;28;20509;-89
2022/01/13 08:07:24;;;;;;;78.95;15.82;;;2.50;99.90;;;;;;4974982;28;20053;-88
2022/01/13 08:09:50;;;;;;;82.13;15.95;;;2.50;99.90;;;;;;4976173;28;20497;-89
2022/01/13 08:12:15;;;;;;;70.45;17.90;;;2.50;99.90;;;;;;4992958;28;20018;-88
2022/01/13 08:14:41;;;;;;;60.50;15.65;;;2.40;99.90;;;;;;4976015;28;20113;-89
2022/01/13 08:17:08;;;;;;;107.45;19.33;;;2.40;99.90;;;;;;4972618;28;20027;-88
2022/01/13 08:19:46;;;;;;;104.82;19.05;;;2.50;99.90;;;;;;4974763;28;20057;-89
2022/01/13 08:22:12;;;;;;;91.75;17.75;;;2.40;99.90;;;;;;4977309;28;20027;-90
2022/01/13 08:24:38;;;;;;;100.00;20.73;;;2.40;99.90;;;;;;4976708;28;20085;-87
2022/01/13 08:27:04;;;;;;;72.35;16.80;;;2.40;99.90;;;;;;4977758;28;20026;-88
2022/01/13 08:29:29;;;;;;;94.97;19.55;;;2.40;99.90;;;;;;4982356;28;20034;-88
2022/01/13 08:31:55;;;;;;;97.75;18.00;;;2.40;99.90;;;;;;4981067;28;20125;-89
2022/01/13 08:34:20;;;;;;;66.88;17.70;;;2.50;99.90;;;;;;4980003;28;20054;-88
2022/01/13 08:36:46;;;;;;;65.15;17.50;;;2.50;99.90;;;;;;4977103;28;20483;-88
2022/01/13 08:39:12;;;;;;;69.18;16.63;;;2.50;99.90;;;;;;4970464;28;20624;-88
2022/01/13 08:41:39;;;;;;;72.30;17.90;;;2.50;99.90;;;;;;4980668;28;20049;-88
2022/01/13 08:44:04;;;;;;;74.00;16.70;;;2.50;99.90;;;;;;4976655;28;20029;-88
2022/01/13 08:46:30;;;;;;;70.30;16.58;;;2.60;99.90;;;;;;4979875;28;20550;-89
2022/01/13 08:48:56;;;;;;;85.50;18.42;;;2.60;99.90;;;;;;4979714;28;20057;-88
2022/01/13 08:51:21;;;;;;;61.20;16.38;;;2.60;99.90;;;;;;4976569;28;20086;-88
2022/01/13 08:53:47;;;;;;;66.00;18.20;;;2.60;99.90;;;;;;4997057;28;20058;-88
2022/01/13 08:56:13;;;;;;;86.80;20.45;;;2.60;99.90;;;;;;4993659;28;20050;-88
2022/01/13 08:58:39;;;;;;;64.47;16.90;;;2.60;99.90;;;;;;4978238;28;20030;-89
2022/01/13 09:01:07;;;;;;;58.45;15.70;;;2.60;99.90;;;;;;4981158;28;20034;-89
2022/01/13 09:03:33;;;;;;;56.60;16.10;;;2.70;99.90;;;;;;4982869;28;20105;-89
2022/01/13 09:05:59;;;;;;;53.78;15.20;;;2.70;99.90;;;;;;4998015;28;20042;-88
2022/01/13 09:08:25;;;;;;;59.80;15.10;;;2.70;99.90;;;;;;4978983;28;20030;-88
2022/01/13 09:10:51;;;;;;;53.30;14.13;;;2.80;99.90;;;;;;4998381;28;20092;-88
2022/01/13 09:13:16;;;;;;;54.40;16.48;;;2.70;99.90;;;;;;4979372;28;20034;-88
2022/01/13 09:15:47;;;;;;;50.15;14.75;;;2.80;99.90;;;;;;4972819;28;20440;-88
2022/01/13 09:18:19;;;;;;;98.05;21.88;;;2.80;99.90;;;;;;4970572;28;20026;-88
2022/01/13 09:20:46;;;;;;;64.38;15.38;;;2.80;99.90;;;;;;4980161;28;20129;-88
2022/01/13 09:23:13;;;;;;;72.68;16.55;;;2.80;99.90;;;;;;4979159;28;20027;-88
2022/01/13 09:25:39;;;;;;;69.63;16.17;;;2.90;99.90;;;;;;4979318;28;20447;-88
2022/01/13 09:28:07;;;;;;;94.50;19.10;;;2.90;99.90;;;;;;4979431;28;20073;-88
2022/01/13 09:30:34;;;;;;;102.93;22.85;;;2.90;99.90;;;;;;4979693;28;20027;-89
2022/01/13 09:33:00;;;;;;;62.10;16.80;;;2.90;99.90;;;;;;4979259;28;20121;-89
2022/01/13 09:35:26;;;;;;;95.00;19.50;;;3.00;99.90;;;;;;4977193;28;20066;-89
2022/01/13 09:37:51;;;;;;;66.55;18.10;;;3.00;99.90;;;;;;4978521;28;20364;-89
2022/01/13 09:40:17;;;;;;;64.40;18.25;;;3.00;99.90;;;;;;4977686;28;20058;-89
2022/01/13 09:42:44;;;;;;;81.70;19.02;;;3.00;99.90;;;;;;4978855;28;20054;-89
2022/01/13 09:45:12;;;;;;;71.10;17.80;;;3.00;99.90;;;;;;4995960;28;20068;-88
2022/01/13 09:47:39;;;;;;;77.45;18.08;;;3.10;99.90;;;;;;4978474;28;20030;-89
2022/01/13 09:50:10;;;;;;;66.30;16.77;;;3.10;99.90;;;;;;4978509;28;20407;-89
2022/01/13 09:52:37;;;;;;;65.43;17.70;;;3.10;99.90;;;;;;4978243;28;20874;-89
2022/01/13 09:55:04;;;;;;;69.75;17.65;;;3.10;99.90;;;;;;4996292;28;20034;-89
2022/01/13 09:57:29;;;;;;;73.30;18.58;;;3.10;99.90;;;;;;4993448;28;20049;-89
2022/01/13 09:59:58;;;;;;;76.10;19.02;;;3.20;99.90;;;;;;4995810;28;20116;-89
2022/01/13 10:02:26;;;;;;;85.40;21.08;;;3.20;99.90;;;;;;4977691;28;20033;-89
2022/01/13 10:04:54;;;;;;;70.05;19.60;;;3.20;99.90;;;;;;4978001;28;20483;-88
2022/01/13 10:07:34;;;;;;;66.47;17.77;;;3.20;99.90;;;;;;4978652;28;20037;-88
2022/01/13 10:10:04;;;;;;;71.82;19.75;;;3.30;99.90;;;;;;4995575;28;20173;-88
2022/01/13 10:12:37;;;;;;;73.82;19.70;;;3.30;99.90;;;;;;4977861;28;20030;-88
2022/01/13 10:17:44;;;;;;;75.90;19.80;;;3.30;99.90;;;;;;4995324;28;20026;-89
2022/01/13 10:20:12;;;;;;;75.82;19.90;;;3.30;99.90;;;;;;4978967;28;20041;-89
2022/01/13 10:22:37;;;;;;;83.55;20.45;;;3.30;99.90;;;;;;4977648;28;20027;-88
2022/01/13 10:25:03;;;;;;;83.97;20.63;;;3.30;99.90;;;;;;4974345;28;20057;-90
2022/01/13 10:27:34;;;;;;;66.93;19.30;;;3.40;99.90;;;;;;4975924;28;20023;-88
2022/01/13 10:30:04;;;;;;;76.25;18.75;;;3.40;99.90;;;;;;4974543;28;20035;-89
2022/01/13 10:32:36;;;;;;;64.63;18.33;;;3.40;99.90;;;;;;4973536;28;20105;-89
2022/01/13 10:35:04;;;;;;;73.72;17.92;;;3.40;99.90;;;;;;4991086;28;20031;-88
2022/01/13 10:37:35;;;;;;;65.90;17.83;;;3.40;99.90;;;;;;4990168;28;20077;-88
2022/01/13 10:40:03;;;;;;;69.60;18.00;;;3.40;99.90;;;;;;4974312;28;20034;-88
2022/01/13 10:45:07;;;;;;;57.00;17.30;;;3.40;99.90;;;;;;4975279;28;20042;-87
2022/01/13 10:47:34;;;;;;;67.32;17.95;;;3.40;99.90;;;;;;4959917;28;20026;-87
2022/01/13 10:50:06;;;;;;;60.70;18.17;;;3.40;99.90;;;;;;4990663;28;20073;-88
2022/01/13 10:52:32;;;;;;;81.28;20.15;;;3.40;99.90;;;;;;4974031;28;20041;-88
2022/01/13 10:55:09;;;;;;;86.97;19.20;;;3.40;99.90;;;;;;4973867;28;20030;-88
2022/01/13 10:57:36;;;;;;;63.17;18.50;;;3.40;99.90;;;;;;4974383;28;20054;-88
2022/01/13 11:00:04;;;;;;;59.05;16.48;;;3.40;99.90;;;;;;4974801;28;20097;-87
2022/01/13 11:02:30;;;;;;;64.15;17.60;;;3.40;99.90;;;;;;4974637;28;20487;-88
2022/01/13 11:05:02;;;;;;;55.03;17.70;;;3.40;99.90;;;;;;4970988;28;20043;-87
2022/01/13 11:07:28;;;;;;;57.67;18.33;;;3.40;99.90;;;;;;4973489;28;20027;-88
2022/01/13 11:09:55;;;;;;;63.28;18.73;;;3.40;99.90;;;;;;4974180;28;20031;-88
2022/01/13 11:12:40;;;;;;;84.40;18.55;;;3.50;99.90;;;;;;4974618;28;20054;-87
2022/01/13 11:15:14;;;;;;;71.03;18.45;;;3.50;99.90;;;;;;4974827;28;20026;-88
2022/01/13 11:17:43;;;;;;;73.53;19.27;;;3.50;99.90;;;;;;4974478;28;20480;-87
2022/01/13 11:20:10;;;;;;;59.55;17.63;;;3.50;99.90;;;;;;4974238;28;20436;-88
2022/01/13 11:22:43;;;;;;;54.78;17.27;;;3.50;99.90;;;;;;4973995;28;20054;-88
2022/01/13 11:25:12;;;;;;;64.50;19.13;;;3.50;99.90;;;;;;4973920;28;20137;-87
2022/01/13 11:27:39;;;;;;;70.95;18.73;;;3.50;99.90;;;;;;4974279;28;20029;-87
2022/01/13 11:30:11;;;;;;;65.47;18.83;;;3.50;99.90;;;;;;4974421;28;20042;-88
2022/01/13 11:32:39;;;;;;;63.25;16.80;;;3.50;99.90;;;;;;4974460;28;20058;-88
2022/01/13 11:35:05;;;;;;;66.78;17.70;;;3.50;99.90;;;;;;4974168;28;20043;-87
2022/01/13 11:37:31;;;;;;;57.97;17.80;;;3.50;99.90;;;;;;4974012;28;20080;-88
2022/01/13 11:39:58;;;;;;;67.03;19.52;;;3.50;99.90;;;;;;4974340;28;20030;-88
2022/01/13 11:42:24;;;;;;;62.03;18.95;;;3.50;99.90;;;;;;4973877;28;20158;-88
2022/01/13 11:45:13;;;;;;;58.53;17.65;;;3.50;99.90;;;;;;4973744;28;20073;-88
2022/01/13 11:47:39;;;;;;;78.35;18.50;;;3.50;99.90;;;;;;4955549;28;20039;-88
2022/01/13 11:50:30;;;;;;;69.68;18.95;;;3.50;99.90;;;;;;4973335;28;20530;-86
2022/01/13 11:52:57;;;;;;;74.30;20.35;;;3.50;99.90;;;;;;4992417;28;20062;-87
2022/01/13 11:55:32;;;;;;;59.85;19.60;;;3.50;99.90;;;;;;4991272;28;20039;-87
2022/01/13 11:58:14;;;;;;;70.78;19.70;;;3.50;99.90;;;;;;4974117;28;20034;-89
2022/01/13 12:00:42;;;;;;;65.00;18.35;;;3.50;99.90;;;;;;4973188;28;20038;-86
2022/01/13 12:03:29;;;;;;;61.47;18.35;;;3.50;99.90;;;;;;4972954;28;20022;-87
2022/01/13 12:05:56;;;;;;;62.13;18.58;;;3.50;99.90;;;;;;4972839;28;20436;-87
2022/01/13 12:08:47;;;;;;;75.32;20.70;;;3.50;99.90;;;;;;4973741;28;20034;-88
2022/01/13 12:11:51;;;;;;;80.25;20.02;;;3.50;99.90;;;;;;4964537;28;20403;-89
2022/01/13 12:14:30;;;;;;;67.72;20.50;;;3.50;99.90;;;;;;4899572;29;20032;-88
2022/01/13 12:17:04;;;;;;;66.15;21.45;;;3.50;99.90;;;;;;4981703;28;20479;-88
2022/01/13 12:19:33;;;;;;;74.28;19.60;;;3.50;99.90;;;;;;4989922;28;20116;-88
2022/01/13 12:22:09;;;;;;;64.68;20.75;;;3.40;99.90;;;;;;4989843;28;20058;-88
2022/01/13 12:24:48;;;;;;;80.22;20.10;;;3.40;99.90;;;;;;4973283;28;20130;-89
2022/01/13 12:27:17;;;;;;;73.25;18.75;;;3.40;99.90;;;;;;4973639;28;20019;-87
2022/01/13 12:29:47;;;;;;;68.38;19.75;;;3.50;99.90;;;;;;4973765;28;20031;-88
2022/01/13 12:32:14;;;;;;;70.30;19.30;;;3.50;99.90;;;;;;4974577;28;20019;-87
2022/01/13 12:34:45;;;;;;;87.32;22.00;;;3.60;99.90;;;;;;4973490;28;20518;-88
2022/01/13 12:37:11;;;;;;;71.57;20.52;;;3.60;99.90;;;;;;4973236;28;20031;-86
2022/01/13 12:40:00;;;;;;;64.45;19.10;;;3.60;99.90;;;;;;4972978;28;20022;-87
2022/01/13 12:42:43;;;;;;;74.13;20.77;;;3.60;99.90;;;;;;4973058;28;20521;-88
2022/01/13 12:45:28;;;;;;;76.60;20.88;;;3.70;99.90;;;;;;4973343;28;20086;-88
2022/01/13 12:48:00;;;;;;;68.13;19.50;;;3.60;99.90;;;;;;4989862;28;20050;-88
2022/01/13 12:50:33;;;;;;;92.35;22.27;;;3.70;99.90;;;;;;4972782;28;20035;-87
2022/01/13 12:53:07;;;;;;;;;;;3.60;99.90;;;;;;4973663;28;20057;-87
2022/01/13 12:55:34;;;;;;;82.72;20.60;;;3.60;99.90;;;;;;4973596;28;19921;-87
2022/01/13 12:58:00;;;;;;;78.93;22.48;;;3.60;99.90;;;;;;4972736;28;20026;-87
2022/01/13 13:00:25;;;;;;;102.22;25.30;;;3.50;99.90;;;;;;4971648;28;20489;-87
2022/01/13 13:02:58;;;;;;;82.22;22.75;;;3.60;99.90;;;;;;4973804;28;20034;-88
2022/01/13 13:05:35;;;;;;;101.68;22.05;;;3.60;99.90;;;;;;4972589;28;20045;-89
2022/01/13 13:08:01;;;;;;;79.78;20.90;;;3.60;99.90;;;;;;4969570;28;20479;-90